sensor_id;sensor_type;location;lat;lon;timestamp;P1;durP1;ratioP1;P2;durP2;ratioP2
67344;SDS011;54230;52.402;6.276;2023-02-07T00:00:00;35.4;;;21.0;;
67344;SDS011;54230;52.402;6.276;2023-02-07T00:05:00;35.5;;;21.4;;
67344;SDS011;54230;52.402;6.276;2023-02-07T00:10:00;37.9;;;22.3;;
67344;SDS011;54230;52.402;6.276;2023-02-07T00:15:00;38.0;;;24.2;;
67344;SDS011;54230;52.402;6.276;2023-02-07T00:20:00;44.5;;;23.9;;
67344;SDS011;54230;52.402;6.276;2023-02-07T00:25:00;43.4;;;24.4;;
67344;SDS011;54230;52.402;6.276;2023-02-07T00:30:00;38.6;;;23.4;;
67344;SDS011;54230;52.402;6.276;2023-02-07T00:35:00;37.7;;;22.6;;
67344;SDS011;54230;52.402;6.276;2023-02-07T00:40:00;39.0;;;24.4;;
67344;SDS011;54230;52.402;6.276;2023-02-07T00:45:00;40.9;;;25.3;;
67344;SDS011;54230;52.402;6.276;2023-02-07T00:50:00;36.3;;;24.0;;
67344;SDS011;54230;52.402;6.276;2023-02-07T00:55:00;39.7;;;24.8;;
67344;SDS011;54230;52.402;6.276;2023-02-07T01:00:00;36.6;;;24.0;;
67344;SDS011;54230;52.402;6.276;2023-02-07T01:05:00;37.3;;;24.3;;
67344;SDS011;54230;52.402;6.276;2023-02-07T01:10:00;42.7;;;26.1;;
67344;SDS011;54230;52.402;6.276;2023-02-07T01:15:00;45.7;;;25.7;;
67344;SDS011;54230;52.402;6.276;2023-02-07T01:20:00;40.9;;;26.9;;
67344;SDS011;54230;52.402;6.276;2023-02-07T01:25:00;44.8;;;27.8;;
67344;SDS011;54230;52.402;6.276;2023-02-07T01:30:00;41.9;;;27.0;;
67344;SDS011;54230;52.402;6.276;2023-02-07T01:35:00;46.5;;;26.8;;
67344;SDS011;54230;52.402;6.276;2023-02-07T01:40:00;41.6;;;27.8;;
67344;SDS011;54230;52.402;6.276;2023-02-07T01:45:03;41.2;;;28.1;;
67344;SDS011;54230;52.402;6.276;2023-02-07T01:50:00;35.8;;;26.0;;
67344;SDS011;54230;52.402;6.276;2023-02-07T01:55:01;41.9;;;26.8;;
67344;SDS011;54230;52.402;6.276;2023-02-07T02:00:00;39.4;;;26.5;;
67344;SDS011;54230;52.402;6.276;2023-02-07T02:05:00;38.5;;;27.3;;
67344;SDS011;54230;52.402;6.276;2023-02-07T02:10:00;41.6;;;27.0;;
67344;SDS011;54230;52.402;6.276;2023-02-07T02:15:10;44.1;;;27.6;;
67344;SDS011;54230;52.402;6.276;2023-02-07T02:20:07;44.7;;;28.3;;
67344;SDS011;54230;52.402;6.276;2023-02-07T02:25:06;40.5;;;27.0;;
67344;SDS011;54230;52.402;6.276;2023-02-07T02:35:02;39.7;;;26.7;;
67344;SDS011;54230;52.402;6.276;2023-02-07T02:40:01;41.5;;;27.0;;
67344;SDS011;54230;52.402;6.276;2023-02-07T02:45:01;41.6;;;26.7;;
67344;SDS011;54230;52.402;6.276;2023-02-07T02:50:00;38.7;;;26.7;;
67344;SDS011;54230;52.402;6.276;2023-02-07T02:55:00;41.0;;;28.3;;
67344;SDS011;54230;52.402;6.276;2023-02-07T03:00:03;43.3;;;26.6;;
67344;SDS011;54230;52.402;6.276;2023-02-07T03:05:03;41.0;;;27.5;;
67344;SDS011;54230;52.402;6.276;2023-02-07T03:10:01;41.1;;;27.2;;
67344;SDS011;54230;52.402;6.276;2023-02-07T03:15:01;40.6;;;26.9;;
67344;SDS011;54230;52.402;6.276;2023-02-07T03:20:01;38.2;;;25.6;;
67344;SDS011;54230;52.402;6.276;2023-02-07T03:25:00;37.8;;;24.6;;
67344;SDS011;54230;52.402;6.276;2023-02-07T03:30:00;37.9;;;25.8;;
67344;SDS011;54230;52.402;6.276;2023-02-07T03:35:02;36.3;;;26.2;;
67344;SDS011;54230;52.402;6.276;2023-02-07T03:40:00;42.0;;;26.7;;
67344;SDS011;54230;52.402;6.276;2023-02-07T03:45:00;42.2;;;26.7;;
67344;SDS011;54230;52.402;6.276;2023-02-07T03:50:00;36.3;;;26.6;;
67344;SDS011;54230;52.402;6.276;2023-02-07T03:55:00;43.0;;;28.1;;
67344;SDS011;54230;52.402;6.276;2023-02-07T04:00:00;39.9;;;27.7;;
67344;SDS011;54230;52.402;6.276;2023-02-07T04:05:00;37.3;;;27.5;;
67344;SDS011;54230;52.402;6.276;2023-02-07T04:10:00;37.3;;;27.2;;
67344;SDS011;54230;52.402;6.276;2023-02-07T04:15:00;36.9;;;26.6;;
67344;SDS011;54230;52.402;6.276;2023-02-07T04:20:00;37.5;;;26.8;;
67344;SDS011;54230;52.402;6.276;2023-02-07T04:25:00;39.5;;;26.8;;
67344;SDS011;54230;52.402;6.276;2023-02-07T04:30:00;36.4;;;25.9;;
67344;SDS011;54230;52.402;6.276;2023-02-07T04:35:00;37.4;;;26.3;;
67344;SDS011;54230;52.402;6.276;2023-02-07T04:40:00;35.3;;;25.8;;
67344;SDS011;54230;52.402;6.276;2023-02-07T04:45:00;35.7;;;26.3;;
67344;SDS011;54230;52.402;6.276;2023-02-07T04:50:00;41.0;;;27.8;;
67344;SDS011;54230;52.402;6.276;2023-02-07T04:55:00;36.0;;;26.6;;
67344;SDS011;54230;52.402;6.276;2023-02-07T05:00:00;38.1;;;27.9;;
67344;SDS011;54230;52.402;6.276;2023-02-07T05:05:00;36.9;;;26.6;;
67344;SDS011;54230;52.402;6.276;2023-02-07T05:10:00;39.1;;;26.4;;
67344;SDS011;54230;52.402;6.276;2023-02-07T05:15:00;38.4;;;27.8;;
67344;SDS011;54230;52.402;6.276;2023-02-07T05:20:00;36.9;;;26.8;;
67344;SDS011;54230;52.402;6.276;2023-02-07T05:25:00;44.4;;;29.5;;
67344;SDS011;54230;52.402;6.276;2023-02-07T05:30:00;38.0;;;25.5;;
67344;SDS011;54230;52.402;6.276;2023-02-07T05:35:00;38.6;;;28.7;;
67344;SDS011;54230;52.402;6.276;2023-02-07T05:40:00;38.8;;;28.8;;
67344;SDS011;54230;52.402;6.276;2023-02-07T05:45:00;39.5;;;27.6;;
67344;SDS011;54230;52.402;6.276;2023-02-07T05:50:00;40.4;;;28.5;;
67344;SDS011;54230;52.402;6.276;2023-02-07T05:55:00;39.6;;;27.6;;
67344;SDS011;54230;52.402;6.276;2023-02-07T06:00:00;40.5;;;27.0;;
67344;SDS011;54230;52.402;6.276;2023-02-07T06:05:00;37.6;;;27.3;;
67344;SDS011;54230;52.402;6.276;2023-02-07T06:10:00;36.9;;;26.4;;
67344;SDS011;54230;52.402;6.276;2023-02-07T06:15:00;39.7;;;27.1;;
67344;SDS011;54230;52.402;6.276;2023-02-07T06:20:00;37.7;;;28.1;;
67344;SDS011;54230;52.402;6.276;2023-02-07T06:25:00;42.4;;;28.1;;
67344;SDS011;54230;52.402;6.276;2023-02-07T06:30:00;40.5;;;27.8;;
67344;SDS011;54230;52.402;6.276;2023-02-07T06:35:00;39.4;;;27.7;;
67344;SDS011;54230;52.402;6.276;2023-02-07T06:40:00;43.0;;;29.4;;
67344;SDS011;54230;52.402;6.276;2023-02-07T06:45:00;42.1;;;28.9;;
67344;SDS011;54230;52.402;6.276;2023-02-07T06:50:00;39.6;;;27.8;;
67344;SDS011;54230;52.402;6.276;2023-02-07T06:55:00;43.2;;;29.0;;
67344;SDS011;54230;52.402;6.276;2023-02-07T07:00:00;42.3;;;29.1;;
67344;SDS011;54230;52.402;6.276;2023-02-07T07:05:00;43.6;;;29.3;;
67344;SDS011;54230;52.402;6.276;2023-02-07T07:10:00;44.4;;;28.4;;
67344;SDS011;54230;52.402;6.276;2023-02-07T07:15:00;41.5;;;28.4;;
67344;SDS011;54230;52.402;6.276;2023-02-07T07:20:00;43.5;;;29.5;;
67344;SDS011;54230;52.402;6.276;2023-02-07T07:25:00;43.9;;;30.0;;
67344;SDS011;54230;52.402;6.276;2023-02-07T07:30:00;42.8;;;29.0;;
67344;SDS011;54230;52.402;6.276;2023-02-07T07:35:00;44.5;;;27.0;;
67344;SDS011;54230;52.402;6.276;2023-02-07T07:40:00;46.2;;;30.8;;
67344;SDS011;54230;52.402;6.276;2023-02-07T07:45:00;46.6;;;29.2;;
67344;SDS011;54230;52.402;6.276;2023-02-07T07:50:00;48.3;;;30.5;;
67344;SDS011;54230;52.402;6.276;2023-02-07T07:55:00;48.3;;;29.8;;
67344;SDS011;54230;52.402;6.276;2023-02-07T08:00:00;46.6;;;30.9;;
67344;SDS011;54230;52.402;6.276;2023-02-07T08:05:00;48.8;;;30.4;;
67344;SDS011;54230;52.402;6.276;2023-02-07T08:10:00;50.2;;;30.9;;
67344;SDS011;54230;52.402;6.276;2023-02-07T08:15:00;52.7;;;32.0;;
67344;SDS011;54230;52.402;6.276;2023-02-07T08:20:00;52.2;;;29.8;;
67344;SDS011;54230;52.402;6.276;2023-02-07T08:25:00;45.2;;;29.5;;
67344;SDS011;54230;52.402;6.276;2023-02-07T08:30:00;42.3;;;29.5;;
67344;SDS011;54230;52.402;6.276;2023-02-07T08:35:00;38.8;;;27.3;;
67344;SDS011;54230;52.402;6.276;2023-02-07T08:40:00;39.3;;;27.4;;
67344;SDS011;54230;52.402;6.276;2023-02-07T08:45:00;38.5;;;27.8;;
67344;SDS011;54230;52.402;6.276;2023-02-07T08:50:00;38.7;;;27.3;;
67344;SDS011;54230;52.402;6.276;2023-02-07T08:55:00;36.5;;;26.1;;
67344;SDS011;54230;52.402;6.276;2023-02-07T09:00:00;36.7;;;26.8;;
67344;SDS011;54230;52.402;6.276;2023-02-07T09:05:00;33.6;;;25.3;;
67344;SDS011;54230;52.402;6.276;2023-02-07T09:10:00;36.1;;;26.4;;
67344;SDS011;54230;52.402;6.276;2023-02-07T09:15:00;36.6;;;26.9;;
67344;SDS011;54230;52.402;6.276;2023-02-07T09:20:00;36.8;;;26.6;;
67344;SDS011;54230;52.402;6.276;2023-02-07T09:25:00;34.8;;;27.1;;
67344;SDS011;54230;52.402;6.276;2023-02-07T09:30:00;34.9;;;26.3;;
67344;SDS011;54230;52.402;6.276;2023-02-07T09:35:00;35.7;;;25.8;;
67344;SDS011;54230;52.402;6.276;2023-02-07T09:40:00;33.0;;;24.8;;
67344;SDS011;54230;52.402;6.276;2023-02-07T09:45:01;29.8;;;23.5;;
67344;SDS011;54230;52.402;6.276;2023-02-07T09:50:00;30.8;;;21.9;;
67344;SDS011;54230;52.402;6.276;2023-02-07T09:55:00;30.0;;;19.9;;
67344;SDS011;54230;52.402;6.276;2023-02-07T10:00:01;25.8;;;17.0;;
67344;SDS011;54230;52.402;6.276;2023-02-07T10:05:01;20.1;;;11.3;;
67344;SDS011;54230;52.402;6.276;2023-02-07T10:10:00;21.6;;;10.9;;
67344;SDS011;54230;52.402;6.276;2023-02-07T10:15:05;17.5;;;9.7;;
67344;SDS011;54230;52.402;6.276;2023-02-07T10:20:02;18.8;;;9.5;;
67344;SDS011;54230;52.402;6.276;2023-02-07T10:25:05;20.2;;;9.6;;
67344;SDS011;54230;52.402;6.276;2023-02-07T10:30:02;19.7;;;10.2;;
67344;SDS011;54230;52.402;6.276;2023-02-07T10:35:01;19.3;;;9.5;;
67344;SDS011;54230;52.402;6.276;2023-02-07T10:40:02;18.5;;;9.0;;
67344;SDS011;54230;52.402;6.276;2023-02-07T10:45:00;17.5;;;8.8;;
67344;SDS011;54230;52.402;6.276;2023-02-07T10:50:00;19.2;;;9.0;;
67344;SDS011;54230;52.402;6.276;2023-02-07T10:55:01;17.7;;;9.3;;
67344;SDS011;54230;52.402;6.276;2023-02-07T11:00:03;17.3;;;8.9;;
67344;SDS011;54230;52.402;6.276;2023-02-07T11:05:00;16.8;;;8.4;;
67344;SDS011;54230;52.402;6.276;2023-02-07T11:15:01;17.1;;;8.6;;
67344;SDS011;54230;52.402;6.276;2023-02-07T11:20:01;16.2;;;8.0;;
67344;SDS011;54230;52.402;6.276;2023-02-07T11:25:00;14.2;;;7.9;;
67344;SDS011;54230;52.402;6.276;2023-02-07T11:30:04;17.7;;;7.8;;
67344;SDS011;54230;52.402;6.276;2023-02-07T11:35:02;14.0;;;7.0;;
67344;SDS011;54230;52.402;6.276;2023-02-07T11:45:02;12.5;;;6.7;;
67344;SDS011;54230;52.402;6.276;2023-02-07T11:50:02;11.2;;;5.9;;
67344;SDS011;54230;52.402;6.276;2023-02-07T11:55:00;10.1;;;5.8;;
67344;SDS011;54230;52.402;6.276;2023-02-07T12:00:02;12.6;;;6.1;;
67344;SDS011;54230;52.402;6.276;2023-02-07T12:05:09;11.9;;;6.5;;
67344;SDS011;54230;52.402;6.276;2023-02-07T12:10:00;12.8;;;7.0;;
67344;SDS011;54230;52.402;6.276;2023-02-07T12:15:00;12.1;;;6.4;;
67344;SDS011;54230;52.402;6.276;2023-02-07T12:20:02;12.1;;;6.5;;
67344;SDS011;54230;52.402;6.276;2023-02-07T12:25:02;11.6;;;6.3;;
67344;SDS011;54230;52.402;6.276;2023-02-07T12:30:01;11.1;;;6.2;;
67344;SDS011;54230;52.402;6.276;2023-02-07T12:35:02;11.3;;;6.3;;
67344;SDS011;54230;52.402;6.276;2023-02-07T12:40:02;12.6;;;6.5;;
67344;SDS011;54230;52.402;6.276;2023-02-07T12:45:00;11.4;;;6.0;;
67344;SDS011;54230;52.402;6.276;2023-02-07T12:50:02;9.7;;;6.0;;
67344;SDS011;54230;52.402;6.276;2023-02-07T12:55:03;10.9;;;5.9;;
67344;SDS011;54230;52.402;6.276;2023-02-07T13:00:03;13.5;;;6.4;;
67344;SDS011;54230;52.402;6.276;2023-02-07T13:10:02;11.9;;;6.5;;
67344;SDS011;54230;52.402;6.276;2023-02-07T13:15:02;11.7;;;6.1;;
67344;SDS011;54230;52.402;6.276;2023-02-07T13:20:02;10.3;;;5.6;;
67344;SDS011;54230;52.402;6.276;2023-02-07T13:25:00;9.9;;;5.5;;
67344;SDS011;54230;52.402;6.276;2023-02-07T13:30:00;9.2;;;5.1;;
67344;SDS011;54230;52.402;6.276;2023-02-07T13:35:01;10.1;;;5.3;;
67344;SDS011;54230;52.402;6.276;2023-02-07T13:40:01;9.3;;;5.2;;
67344;SDS011;54230;52.402;6.276;2023-02-07T13:45:01;9.6;;;5.2;;
67344;SDS011;54230;52.402;6.276;2023-02-07T13:50:01;8.7;;;5.0;;
67344;SDS011;54230;52.402;6.276;2023-02-07T13:55:02;10.1;;;5.5;;
67344;SDS011;54230;52.402;6.276;2023-02-07T14:00:05;8.6;;;5.2;;
67344;SDS011;54230;52.402;6.276;2023-02-07T14:05:05;10.1;;;5.1;;
67344;SDS011;54230;52.402;6.276;2023-02-07T14:10:00;9.2;;;5.2;;
67344;SDS011;54230;52.402;6.276;2023-02-07T14:20:00;11.1;;;6.1;;
67344;SDS011;54230;52.402;6.276;2023-02-07T14:35:01;10.7;;;5.9;;
67344;SDS011;54230;52.402;6.276;2023-02-07T14:40:04;11.8;;;6.2;;
67344;SDS011;54230;52.402;6.276;2023-02-07T14:45:00;10.3;;;6.0;;
67344;SDS011;54230;52.402;6.276;2023-02-07T14:50:00;10.3;;;5.3;;
67344;SDS011;54230;52.402;6.276;2023-02-07T14:55:00;9.4;;;5.6;;
67344;SDS011;54230;52.402;6.276;2023-02-07T15:00:00;11.2;;;5.6;;
67344;SDS011;54230;52.402;6.276;2023-02-07T15:10:00;9.2;;;5.4;;
67344;SDS011;54230;52.402;6.276;2023-02-07T15:15:00;8.3;;;5.2;;
67344;SDS011;54230;52.402;6.276;2023-02-07T15:20:00;9.2;;;5.4;;
67344;SDS011;54230;52.402;6.276;2023-02-07T15:25:00;9.1;;;5.1;;
67344;SDS011;54230;52.402;6.276;2023-02-07T15:30:00;9.0;;;5.2;;
67344;SDS011;54230;52.402;6.276;2023-02-07T15:35:10;8.2;;;4.8;;
67344;SDS011;54230;52.402;6.276;2023-02-07T15:40:00;8.8;;;4.9;;
67344;SDS011;54230;52.402;6.276;2023-02-07T15:45:00;9.8;;;4.9;;
67344;SDS011;54230;52.402;6.276;2023-02-07T15:50:00;8.0;;;5.1;;
67344;SDS011;54230;52.402;6.276;2023-02-07T15:55:01;9.5;;;5.4;;
67344;SDS011;54230;52.402;6.276;2023-02-07T16:00:01;9.4;;;5.2;;
67344;SDS011;54230;52.402;6.276;2023-02-07T16:05:06;8.2;;;5.0;;
67344;SDS011;54230;52.402;6.276;2023-02-07T16:15:00;9.9;;;5.3;;
67344;SDS011;54230;52.402;6.276;2023-02-07T16:20:00;9.8;;;5.0;;
67344;SDS011;54230;52.402;6.276;2023-02-07T16:25:00;9.3;;;5.2;;
67344;SDS011;54230;52.402;6.276;2023-02-07T16:30:00;10.0;;;5.7;;
67344;SDS011;54230;52.402;6.276;2023-02-07T16:35:00;11.8;;;5.9;;
67344;SDS011;54230;52.402;6.276;2023-02-07T16:40:00;10.6;;;5.5;;
67344;SDS011;54230;52.402;6.276;2023-02-07T16:45:00;10.3;;;5.8;;
67344;SDS011;54230;52.402;6.276;2023-02-07T16:50:00;12.2;;;6.2;;
67344;SDS011;54230;52.402;6.276;2023-02-07T16:55:00;10.7;;;6.1;;
67344;SDS011;54230;52.402;6.276;2023-02-07T17:00:00;12.7;;;6.4;;
67344;SDS011;54230;52.402;6.276;2023-02-07T17:05:00;13.2;;;6.5;;
67344;SDS011;54230;52.402;6.276;2023-02-07T17:10:00;14.2;;;6.8;;
67344;SDS011;54230;52.402;6.276;2023-02-07T17:15:00;15.6;;;7.6;;
67344;SDS011;54230;52.402;6.276;2023-02-07T17:20:00;16.6;;;7.7;;
67344;SDS011;54230;52.402;6.276;2023-02-07T17:25:00;15.0;;;7.9;;
67344;SDS011;54230;52.402;6.276;2023-02-07T17:30:00;15.8;;;8.4;;
67344;SDS011;54230;52.402;6.276;2023-02-07T17:35:00;16.5;;;9.3;;
67344;SDS011;54230;52.402;6.276;2023-02-07T17:40:00;16.6;;;8.9;;
67344;SDS011;54230;52.402;6.276;2023-02-07T17:45:00;17.6;;;8.8;;
67344;SDS011;54230;52.402;6.276;2023-02-07T17:50:00;16.9;;;8.9;;
67344;SDS011;54230;52.402;6.276;2023-02-07T17:55:00;18.7;;;9.3;;
67344;SDS011;54230;52.402;6.276;2023-02-07T18:00:00;18.1;;;9.9;;
67344;SDS011;54230;52.402;6.276;2023-02-07T18:05:00;15.9;;;8.6;;
67344;SDS011;54230;52.402;6.276;2023-02-07T18:10:00;13.3;;;7.3;;
67344;SDS011;54230;52.402;6.276;2023-02-07T18:15:00;13.1;;;7.3;;
67344;SDS011;54230;52.402;6.276;2023-02-07T18:20:00;18.1;;;10.1;;
67344;SDS011;54230;52.402;6.276;2023-02-07T18:25:00;18.3;;;9.6;;
67344;SDS011;54230;52.402;6.276;2023-02-07T18:30:00;19.5;;;10.1;;
67344;SDS011;54230;52.402;6.276;2023-02-07T18:35:00;19.3;;;10.3;;
67344;SDS011;54230;52.402;6.276;2023-02-07T18:40:00;19.4;;;10.0;;
67344;SDS011;54230;52.402;6.276;2023-02-07T18:45:00;20.2;;;10.3;;
67344;SDS011;54230;52.402;6.276;2023-02-07T18:50:00;19.3;;;10.1;;
67344;SDS011;54230;52.402;6.276;2023-02-07T18:55:00;18.7;;;10.0;;
67344;SDS011;54230;52.402;6.276;2023-02-07T19:00:00;18.6;;;9.9;;
67344;SDS011;54230;52.402;6.276;2023-02-07T19:05:00;15.9;;;9.3;;
67344;SDS011;54230;52.402;6.276;2023-02-07T19:10:00;17.3;;;9.0;;
67344;SDS011;54230;52.402;6.276;2023-02-07T19:15:00;20.6;;;12.0;;
67344;SDS011;54230;52.402;6.276;2023-02-07T19:20:00;21.1;;;12.2;;
67344;SDS011;54230;52.402;6.276;2023-02-07T19:25:00;19.7;;;13.0;;
67344;SDS011;54230;52.402;6.276;2023-02-07T19:30:00;23.4;;;16.2;;
67344;SDS011;54230;52.402;6.276;2023-02-07T19:35:00;20.7;;;14.7;;
67344;SDS011;54230;52.402;6.276;2023-02-07T19:40:00;22.9;;;17.7;;
67344;SDS011;54230;52.402;6.276;2023-02-07T19:45:00;21.6;;;16.9;;
67344;SDS011;54230;52.402;6.276;2023-02-07T19:50:00;22.9;;;18.5;;
67344;SDS011;54230;52.402;6.276;2023-02-07T19:55:00;24.3;;;21.1;;
67344;SDS011;54230;52.402;6.276;2023-02-07T20:00:00;25.4;;;21.4;;
67344;SDS011;54230;52.402;6.276;2023-02-07T20:05:00;27.1;;;22.8;;
67344;SDS011;54230;52.402;6.276;2023-02-07T20:10:00;31.9;;;24.1;;
67344;SDS011;54230;52.402;6.276;2023-02-07T20:15:00;24.8;;;22.1;;
67344;SDS011;54230;52.402;6.276;2023-02-07T20:20:00;25.5;;;20.6;;
67344;SDS011;54230;52.402;6.276;2023-02-07T20:25:00;26.5;;;23.1;;
67344;SDS011;54230;52.402;6.276;2023-02-07T20:30:00;27.7;;;23.3;;
67344;SDS011;54230;52.402;6.276;2023-02-07T20:35:00;26.1;;;22.2;;
67344;SDS011;54230;52.402;6.276;2023-02-07T20:40:00;26.1;;;22.2;;
67344;SDS011;54230;52.402;6.276;2023-02-07T20:45:00;26.9;;;23.0;;
67344;SDS011;54230;52.402;6.276;2023-02-07T20:50:00;27.9;;;23.3;;
67344;SDS011;54230;52.402;6.276;2023-02-07T20:55:00;28.4;;;23.8;;
67344;SDS011;54230;52.402;6.276;2023-02-07T21:00:00;28.4;;;23.4;;
67344;SDS011;54230;52.402;6.276;2023-02-07T21:05:00;29.7;;;24.1;;
67344;SDS011;54230;52.402;6.276;2023-02-07T21:10:00;29.5;;;25.4;;
67344;SDS011;54230;52.402;6.276;2023-02-07T21:15:00;32.3;;;25.5;;
67344;SDS011;54230;52.402;6.276;2023-02-07T21:20:00;30.3;;;25.2;;
67344;SDS011;54230;52.402;6.276;2023-02-07T21:25:00;32.2;;;26.7;;
67344;SDS011;54230;52.402;6.276;2023-02-07T21:30:00;31.6;;;26.4;;
67344;SDS011;54230;52.402;6.276;2023-02-07T21:35:00;33.6;;;28.3;;
67344;SDS011;54230;52.402;6.276;2023-02-07T21:40:00;31.8;;;26.0;;
67344;SDS011;54230;52.402;6.276;2023-02-07T21:45:00;34.9;;;27.2;;
67344;SDS011;54230;52.402;6.276;2023-02-07T21:50:00;32.8;;;27.6;;
67344;SDS011;54230;52.402;6.276;2023-02-07T21:55:00;33.9;;;27.5;;
67344;SDS011;54230;52.402;6.276;2023-02-07T22:00:00;32.0;;;26.3;;
67344;SDS011;54230;52.402;6.276;2023-02-07T22:05:00;34.2;;;27.6;;
67344;SDS011;54230;52.402;6.276;2023-02-07T22:10:00;35.1;;;27.5;;
67344;SDS011;54230;52.402;6.276;2023-02-07T22:15:00;34.4;;;27.7;;
67344;SDS011;54230;52.402;6.276;2023-02-07T22:20:00;35.3;;;29.0;;
67344;SDS011;54230;52.402;6.276;2023-02-07T22:25:00;36.9;;;29.2;;
67344;SDS011;54230;52.402;6.276;2023-02-07T22:30:00;34.8;;;28.6;;
67344;SDS011;54230;52.402;6.276;2023-02-07T22:35:00;33.7;;;27.0;;
67344;SDS011;54230;52.402;6.276;2023-02-07T22:40:00;33.3;;;27.0;;
67344;SDS011;54230;52.402;6.276;2023-02-07T22:45:00;33.1;;;27.1;;
67344;SDS011;54230;52.402;6.276;2023-02-07T22:50:00;33.1;;;27.6;;
67344;SDS011;54230;52.402;6.276;2023-02-07T22:55:00;33.6;;;27.6;;
67344;SDS011;54230;52.402;6.276;2023-02-07T23:00:00;33.8;;;27.3;;
67344;SDS011;54230;52.402;6.276;2023-02-07T23:05:00;35.3;;;29.2;;
67344;SDS011;54230;52.402;6.276;2023-02-07T23:10:00;36.4;;;29.3;;
67344;SDS011;54230;52.402;6.276;2023-02-07T23:15:00;37.7;;;28.9;;
67344;SDS011;54230;52.402;6.276;2023-02-07T23:20:00;35.1;;;28.4;;
67344;SDS011;54230;52.402;6.276;2023-02-07T23:25:00;36.4;;;28.0;;
67344;SDS011;54230;52.402;6.276;2023-02-07T23:30:00;35.6;;;29.1;;
67344;SDS011;54230;52.402;6.276;2023-02-07T23:35:00;38.2;;;29.1;;
67344;SDS011;54230;52.402;6.276;2023-02-07T23:40:00;36.9;;;28.1;;
67344;SDS011;54230;52.402;6.276;2023-02-07T23:45:00;34.2;;;26.7;;
67344;SDS011;54230;52.402;6.276;2023-02-07T23:50:00;35.9;;;27.6;;
67344;SDS011;54230;52.402;6.276;2023-02-07T23:55:00;34.4;;;27.9;;
